sensor_id;sensor_type;location;lat;lon;timestamp;pressure;altitude;pressure_sealevel;temperature;humidity
71165;BME280;58859;55.132;-1.586;2023-05-24T00:00:03;102103.56;;;18.97;100.00
71165;BME280;58859;55.132;-1.586;2023-05-24T00:02:30;102102.56;;;19.06;100.00
71165;BME280;58859;55.132;-1.586;2023-05-24T00:04:55;102097.19;;;18.75;100.00
71165;BME280;58859;55.132;-1.586;2023-05-24T00:07:25;102100.22;;;17.98;100.00
71165;BME280;58859;55.132;-1.586;2023-05-24T00:09:50;102110.84;;;17.38;100.00
71165;BME280;58859;55.132;-1.586;2023-05-24T00:12:15;102104.06;;;17.61;100.00
71165;BME280;58859;55.132;-1.586;2023-05-24T00:14:41;102093.69;;;17.34;100.00
71165;BME280;58859;55.132;-1.586;2023-05-24T00:17:06;102101.81;;;17.74;100.00
71165;BME280;58859;55.132;-1.586;2023-05-24T00:19:32;102120.34;;;18.31;100.00
71165;BME280;58859;55.132;-1.586;2023-05-24T00:21:57;102112.75;;;18.04;100.00
71165;BME280;58859;55.132;-1.586;2023-05-24T00:24:22;102111.13;;;17.61;100.00
71165;BME280;58859;55.132;-1.586;2023-05-24T00:26:48;102110.75;;;17.90;100.00
71165;BME280;58859;55.132;-1.586;2023-05-24T00:29:13;102105.72;;;18.28;100.00
71165;BME280;58859;55.132;-1.586;2023-05-24T00:31:39;102111.44;;;17.58;100.00
71165;BME280;58859;55.132;-1.586;2023-05-24T00:34:05;102101.19;;;17.97;100.00
71165;BME280;58859;55.132;-1.586;2023-05-24T00:36:30;102100.00;;;17.41;100.00
71165;BME280;58859;55.132;-1.586;2023-05-24T00:38:57;102107.72;;;18.75;100.00
71165;BME280;58859;55.132;-1.586;2023-05-24T00:41:22;102108.03;;;18.39;100.00
71165;BME280;58859;55.132;-1.586;2023-05-24T00:43:48;102109.78;;;17.91;100.00
71165;BME280;58859;55.132;-1.586;2023-05-24T00:46:28;102107.72;;;17.43;100.00
71165;BME280;58859;55.132;-1.586;2023-05-24T00:48:54;102101.13;;;18.87;100.00
71165;BME280;58859;55.132;-1.586;2023-05-24T00:51:20;102104.09;;;18.27;100.00
71165;BME280;58859;55.132;-1.586;2023-05-24T00:53:47;102105.25;;;18.33;100.00
71165;BME280;58859;55.132;-1.586;2023-05-24T00:56:13;102104.53;;;17.99;100.00
71165;BME280;58859;55.132;-1.586;2023-05-24T00:58:39;102105.06;;;16.83;100.00
71165;BME280;58859;55.132;-1.586;2023-05-24T01:01:05;102100.59;;;17.01;100.00
71165;BME280;58859;55.132;-1.586;2023-05-24T01:03:31;102103.06;;;16.77;100.00
71165;BME280;58859;55.132;-1.586;2023-05-24T01:05:59;102091.28;;;17.83;100.00
71165;BME280;58859;55.132;-1.586;2023-05-24T01:17:12;102097.34;;;17.07;100.00
71165;BME280;58859;55.132;-1.586;2023-05-24T01:19:51;102091.59;;;17.38;100.00
71165;BME280;58859;55.132;-1.586;2023-05-24T01:22:25;102092.66;;;17.19;100.00
71165;BME280;58859;55.132;-1.586;2023-05-24T01:25:02;102088.00;;;17.80;100.00
71165;BME280;58859;55.132;-1.586;2023-05-24T01:27:30;102092.94;;;17.08;100.00
71165;BME280;58859;55.132;-1.586;2023-05-24T01:29:58;102098.09;;;17.93;100.00
71165;BME280;58859;55.132;-1.586;2023-05-24T01:32:24;102094.84;;;17.65;100.00
71165;BME280;58859;55.132;-1.586;2023-05-24T01:34:50;102086.97;;;17.65;100.00
71165;BME280;58859;55.132;-1.586;2023-05-24T01:37:15;102099.50;;;17.46;100.00
71165;BME280;58859;55.132;-1.586;2023-05-24T01:39:40;102091.66;;;17.88;100.00
71165;BME280;58859;55.132;-1.586;2023-05-24T01:50:27;102080.66;;;18.16;100.00
71165;BME280;58859;55.132;-1.586;2023-05-24T01:52:57;102085.44;;;17.55;100.00
71165;BME280;58859;55.132;-1.586;2023-05-24T01:55:26;102073.22;;;16.86;100.00
71165;BME280;58859;55.132;-1.586;2023-05-24T01:57:53;102069.56;;;16.00;100.00
71165;BME280;58859;55.132;-1.586;2023-05-24T02:00:21;102068.72;;;16.96;100.00
71165;BME280;58859;55.132;-1.586;2023-05-24T02:02:47;102062.66;;;17.04;100.00
71165;BME280;58859;55.132;-1.586;2023-05-24T02:05:13;102046.31;;;16.49;100.00
71165;BME280;58859;55.132;-1.586;2023-05-24T02:07:38;102042.69;;;15.89;100.00
71165;BME280;58859;55.132;-1.586;2023-05-24T02:10:05;102047.25;;;16.40;100.00
71165;BME280;58859;55.132;-1.586;2023-05-24T02:12:31;102052.88;;;16.27;100.00
71165;BME280;58859;55.132;-1.586;2023-05-24T02:14:56;102045.88;;;16.71;100.00
71165;BME280;58859;55.132;-1.586;2023-05-24T02:17:22;102051.56;;;16.49;100.00
71165;BME280;58859;55.132;-1.586;2023-05-24T02:19:49;102061.38;;;17.08;100.00
71165;BME280;58859;55.132;-1.586;2023-05-24T02:22:15;102053.50;;;16.82;100.00
71165;BME280;58859;55.132;-1.586;2023-05-24T02:24:40;102046.13;;;16.42;100.00
71165;BME280;58859;55.132;-1.586;2023-05-24T02:27:06;102042.50;;;15.73;100.00
71165;BME280;58859;55.132;-1.586;2023-05-24T02:29:31;102045.34;;;14.98;100.00
71165;BME280;58859;55.132;-1.586;2023-05-24T02:31:56;102041.81;;;15.53;100.00
71165;BME280;58859;55.132;-1.586;2023-05-24T02:34:22;102044.06;;;16.72;100.00
71165;BME280;58859;55.132;-1.586;2023-05-24T02:36:49;102057.34;;;17.55;100.00
71165;BME280;58859;55.132;-1.586;2023-05-24T02:39:14;102057.94;;;16.82;100.00
71165;BME280;58859;55.132;-1.586;2023-05-24T02:41:40;102052.66;;;17.83;100.00
71165;BME280;58859;55.132;-1.586;2023-05-24T02:44:05;102046.69;;;16.97;100.00
71165;BME280;58859;55.132;-1.586;2023-05-24T02:46:30;102048.50;;;17.64;100.00
71165;BME280;58859;55.132;-1.586;2023-05-24T02:48:56;102043.22;;;16.63;100.00
71165;BME280;58859;55.132;-1.586;2023-05-24T02:51:21;102044.84;;;17.23;100.00
71165;BME280;58859;55.132;-1.586;2023-05-24T02:53:47;102055.97;;;18.01;100.00
71165;BME280;58859;55.132;-1.586;2023-05-24T02:56:12;102060.66;;;18.56;100.00
71165;BME280;58859;55.132;-1.586;2023-05-24T02:58:38;102048.53;;;17.80;100.00
71165;BME280;58859;55.132;-1.586;2023-05-24T03:01:06;102053.06;;;16.26;100.00
71165;BME280;58859;55.132;-1.586;2023-05-24T03:03:31;102057.41;;;15.99;100.00
71165;BME280;58859;55.132;-1.586;2023-05-24T03:05:57;102055.31;;;16.03;100.00
71165;BME280;58859;55.132;-1.586;2023-05-24T03:08:22;102060.03;;;15.99;100.00
71165;BME280;58859;55.132;-1.586;2023-05-24T03:10:48;102058.75;;;16.56;100.00
71165;BME280;58859;55.132;-1.586;2023-05-24T03:13:13;102061.13;;;17.27;100.00
71165;BME280;58859;55.132;-1.586;2023-05-24T03:15:39;102062.41;;;17.99;100.00
71165;BME280;58859;55.132;-1.586;2023-05-24T03:18:04;102056.44;;;17.39;100.00
71165;BME280;58859;55.132;-1.586;2023-05-24T03:20:30;102058.09;;;17.90;100.00
71165;BME280;58859;55.132;-1.586;2023-05-24T03:22:56;102057.44;;;17.46;100.00
71165;BME280;58859;55.132;-1.586;2023-05-24T03:25:21;102062.25;;;16.12;100.00
71165;BME280;58859;55.132;-1.586;2023-05-24T03:27:46;102064.44;;;15.99;100.00
71165;BME280;58859;55.132;-1.586;2023-05-24T03:30:12;102060.75;;;16.09;100.00
71165;BME280;58859;55.132;-1.586;2023-05-24T03:32:37;102059.75;;;15.75;100.00
71165;BME280;58859;55.132;-1.586;2023-05-24T03:35:03;102050.38;;;16.43;100.00
71165;BME280;58859;55.132;-1.586;2023-05-24T03:37:28;102034.75;;;16.77;100.00
71165;BME280;58859;55.132;-1.586;2023-05-24T03:39:54;102055.50;;;15.74;100.00
71165;BME280;58859;55.132;-1.586;2023-05-24T03:42:19;102046.28;;;16.58;100.00
71165;BME280;58859;55.132;-1.586;2023-05-24T03:44:45;102040.72;;;16.44;100.00
71165;BME280;58859;55.132;-1.586;2023-05-24T03:47:11;102054.63;;;15.56;100.00
71165;BME280;58859;55.132;-1.586;2023-05-24T03:49:36;102043.19;;;15.20;100.00
71165;BME280;58859;55.132;-1.586;2023-05-24T03:52:02;102049.56;;;15.72;100.00
71165;BME280;58859;55.132;-1.586;2023-05-24T03:54:27;102034.59;;;15.82;100.00
71165;BME280;58859;55.132;-1.586;2023-05-24T03:56:52;102051.78;;;15.40;100.00
71165;BME280;58859;55.132;-1.586;2023-05-24T03:59:18;102052.06;;;16.27;100.00
71165;BME280;58859;55.132;-1.586;2023-05-24T04:01:44;102056.47;;;15.00;100.00
71165;BME280;58859;55.132;-1.586;2023-05-24T04:04:09;102055.06;;;15.96;100.00
71165;BME280;58859;55.132;-1.586;2023-05-24T04:06:35;102044.00;;;16.63;100.00
71165;BME280;58859;55.132;-1.586;2023-05-24T04:09:02;102049.44;;;16.27;100.00
71165;BME280;58859;55.132;-1.586;2023-05-24T04:11:29;102052.38;;;17.18;100.00
71165;BME280;58859;55.132;-1.586;2023-05-24T04:13:56;102051.28;;;16.70;100.00
71165;BME280;58859;55.132;-1.586;2023-05-24T04:16:24;102053.13;;;15.17;100.00
71165;BME280;58859;55.132;-1.586;2023-05-24T04:18:50;102043.59;;;15.80;100.00
71165;BME280;58859;55.132;-1.586;2023-05-24T04:21:16;102052.44;;;15.42;100.00
71165;BME280;58859;55.132;-1.586;2023-05-24T04:23:41;102048.84;;;15.97;100.00
71165;BME280;58859;55.132;-1.586;2023-05-24T04:26:07;102064.84;;;16.83;100.00
71165;BME280;58859;55.132;-1.586;2023-05-24T04:28:34;102060.38;;;16.83;100.00
71165;BME280;58859;55.132;-1.586;2023-05-24T04:31:00;102069.09;;;16.84;100.00
71165;BME280;58859;55.132;-1.586;2023-05-24T04:33:26;102072.75;;;16.47;100.00
71165;BME280;58859;55.132;-1.586;2023-05-24T04:35:52;102055.25;;;16.74;100.00
71165;BME280;58859;55.132;-1.586;2023-05-24T04:38:18;102077.59;;;15.72;100.00
71165;BME280;58859;55.132;-1.586;2023-05-24T04:40:44;102082.28;;;16.48;100.00
71165;BME280;58859;55.132;-1.586;2023-05-24T04:43:09;102081.25;;;16.06;100.00
71165;BME280;58859;55.132;-1.586;2023-05-24T04:45:36;102081.78;;;16.62;100.00
71165;BME280;58859;55.132;-1.586;2023-05-24T04:48:02;102084.19;;;17.33;100.00
71165;BME280;58859;55.132;-1.586;2023-05-24T04:50:27;102077.59;;;17.37;100.00
71165;BME280;58859;55.132;-1.586;2023-05-24T04:52:53;102087.41;;;16.93;100.00
71165;BME280;58859;55.132;-1.586;2023-05-24T04:55:18;102079.06;;;16.01;100.00
71165;BME280;58859;55.132;-1.586;2023-05-24T04:57:44;102088.69;;;15.19;100.00
71165;BME280;58859;55.132;-1.586;2023-05-24T05:00:10;102066.00;;;15.74;100.00
71165;BME280;58859;55.132;-1.586;2023-05-24T05:02:35;102083.16;;;16.75;100.00
71165;BME280;58859;55.132;-1.586;2023-05-24T05:05:01;102083.34;;;16.02;100.00
71165;BME280;58859;55.132;-1.586;2023-05-24T05:07:27;102080.50;;;16.31;100.00
71165;BME280;58859;55.132;-1.586;2023-05-24T05:09:52;102080.41;;;16.58;100.00
71165;BME280;58859;55.132;-1.586;2023-05-24T05:12:17;102097.00;;;17.28;100.00
71165;BME280;58859;55.132;-1.586;2023-05-24T05:14:43;102076.53;;;17.14;100.00
71165;BME280;58859;55.132;-1.586;2023-05-24T05:17:08;102108.38;;;16.32;100.00
71165;BME280;58859;55.132;-1.586;2023-05-24T05:19:33;102102.41;;;17.01;100.00
71165;BME280;58859;55.132;-1.586;2023-05-24T05:21:59;102104.16;;;17.18;100.00
71165;BME280;58859;55.132;-1.586;2023-05-24T05:24:25;102106.06;;;17.08;100.00
71165;BME280;58859;55.132;-1.586;2023-05-24T05:26:50;102100.56;;;16.93;100.00
71165;BME280;58859;55.132;-1.586;2023-05-24T05:29:16;102094.38;;;16.59;100.00
71165;BME280;58859;55.132;-1.586;2023-05-24T05:31:41;102105.50;;;17.22;100.00
71165;BME280;58859;55.132;-1.586;2023-05-24T05:34:06;102106.72;;;16.49;100.00
71165;BME280;58859;55.132;-1.586;2023-05-24T05:36:36;102097.75;;;16.51;100.00
71165;BME280;58859;55.132;-1.586;2023-05-24T05:39:06;102113.13;;;16.82;100.00
71165;BME280;58859;55.132;-1.586;2023-05-24T05:41:37;102115.78;;;16.90;100.00
71165;BME280;58859;55.132;-1.586;2023-05-24T05:44:02;102114.81;;;17.76;100.00
71165;BME280;58859;55.132;-1.586;2023-05-24T05:46:28;102116.31;;;17.87;100.00
71165;BME280;58859;55.132;-1.586;2023-05-24T05:48:53;102119.84;;;18.11;100.00
71165;BME280;58859;55.132;-1.586;2023-05-24T05:51:18;102119.16;;;17.93;100.00
71165;BME280;58859;55.132;-1.586;2023-05-24T05:53:44;102116.59;;;16.64;100.00
71165;BME280;58859;55.132;-1.586;2023-05-24T05:56:09;102120.16;;;17.58;100.00
71165;BME280;58859;55.132;-1.586;2023-05-24T05:58:35;102113.19;;;16.72;100.00
71165;BME280;58859;55.132;-1.586;2023-05-24T06:01:00;102113.69;;;16.93;100.00
71165;BME280;58859;55.132;-1.586;2023-05-24T06:03:25;102110.84;;;17.72;100.00
71165;BME280;58859;55.132;-1.586;2023-05-24T06:05:51;102130.06;;;16.87;100.00
71165;BME280;58859;55.132;-1.586;2023-05-24T06:08:16;102136.78;;;16.82;100.00
71165;BME280;58859;55.132;-1.586;2023-05-24T06:10:42;102132.28;;;17.25;100.00
71165;BME280;58859;55.132;-1.586;2023-05-24T06:13:07;102135.06;;;17.50;100.00
71165;BME280;58859;55.132;-1.586;2023-05-24T06:15:32;102140.31;;;17.50;100.00
71165;BME280;58859;55.132;-1.586;2023-05-24T06:17:59;102130.13;;;17.21;100.00
71165;BME280;58859;55.132;-1.586;2023-05-24T06:20:26;102136.31;;;17.38;100.00
71165;BME280;58859;55.132;-1.586;2023-05-24T06:22:51;102136.97;;;18.07;100.00
71165;BME280;58859;55.132;-1.586;2023-05-24T06:25:18;102131.75;;;17.73;100.00
71165;BME280;58859;55.132;-1.586;2023-05-24T06:27:44;102128.13;;;17.15;100.00
71165;BME280;58859;55.132;-1.586;2023-05-24T06:30:10;102124.53;;;17.84;100.00
71165;BME280;58859;55.132;-1.586;2023-05-24T06:32:37;102127.06;;;17.00;100.00
71165;BME280;58859;55.132;-1.586;2023-05-24T06:35:03;102128.97;;;18.57;100.00
71165;BME280;58859;55.132;-1.586;2023-05-24T06:37:28;102132.53;;;18.08;100.00
71165;BME280;58859;55.132;-1.586;2023-05-24T06:39:55;102140.97;;;17.52;100.00
71165;BME280;58859;55.132;-1.586;2023-05-24T06:42:21;102143.75;;;17.68;100.00
71165;BME280;58859;55.132;-1.586;2023-05-24T06:44:46;102144.56;;;18.18;100.00
71165;BME280;58859;55.132;-1.586;2023-05-24T06:47:11;102140.69;;;18.87;100.00
71165;BME280;58859;55.132;-1.586;2023-05-24T06:49:37;102155.34;;;18.89;100.00
71165;BME280;58859;55.132;-1.586;2023-05-24T06:52:03;102140.13;;;18.43;100.00
71165;BME280;58859;55.132;-1.586;2023-05-24T06:54:28;102136.91;;;18.81;100.00
71165;BME280;58859;55.132;-1.586;2023-05-24T06:56:54;102128.56;;;19.41;100.00
71165;BME280;58859;55.132;-1.586;2023-05-24T06:59:20;102139.25;;;19.47;100.00
71165;BME280;58859;55.132;-1.586;2023-05-24T07:01:45;102145.97;;;19.66;100.00
71165;BME280;58859;55.132;-1.586;2023-05-24T07:04:11;102152.72;;;19.99;100.00
71165;BME280;58859;55.132;-1.586;2023-05-24T07:06:37;102140.25;;;19.85;100.00
71165;BME280;58859;55.132;-1.586;2023-05-24T07:09:03;102136.84;;;19.77;100.00
71165;BME280;58859;55.132;-1.586;2023-05-24T07:11:29;102143.19;;;19.90;100.00
71165;BME280;58859;55.132;-1.586;2023-05-24T07:13:56;102139.66;;;19.67;100.00
71165;BME280;58859;55.132;-1.586;2023-05-24T07:16:21;102158.03;;;19.99;100.00
71165;BME280;58859;55.132;-1.586;2023-05-24T07:18:47;102158.50;;;20.79;100.00
71165;BME280;58859;55.132;-1.586;2023-05-24T07:21:12;102161.50;;;20.76;100.00
71165;BME280;58859;55.132;-1.586;2023-05-24T07:23:38;102159.88;;;21.27;100.00
71165;BME280;58859;55.132;-1.586;2023-05-24T07:26:03;102164.53;;;20.88;100.00
71165;BME280;58859;55.132;-1.586;2023-05-24T07:28:29;102162.34;;;21.29;100.00
71165;BME280;58859;55.132;-1.586;2023-05-24T07:30:55;102172.22;;;20.75;100.00
71165;BME280;58859;55.132;-1.586;2023-05-24T07:33:20;102171.00;;;20.85;100.00
71165;BME280;58859;55.132;-1.586;2023-05-24T07:35:46;102170.91;;;21.16;100.00
71165;BME280;58859;55.132;-1.586;2023-05-24T07:38:18;102168.06;;;21.17;100.00
71165;BME280;58859;55.132;-1.586;2023-05-24T07:40:44;102174.59;;;22.45;100.00
71165;BME280;58859;55.132;-1.586;2023-05-24T07:43:09;102179.81;;;22.53;100.00
71165;BME280;58859;55.132;-1.586;2023-05-24T07:45:35;102183.06;;;21.84;100.00
71165;BME280;58859;55.132;-1.586;2023-05-24T07:48:00;102185.53;;;21.85;100.00
71165;BME280;58859;55.132;-1.586;2023-05-24T07:50:26;102196.09;;;22.14;100.00
71165;BME280;58859;55.132;-1.586;2023-05-24T07:52:53;102192.47;;;22.37;100.00
71165;BME280;58859;55.132;-1.586;2023-05-24T07:55:19;102184.59;;;22.07;100.00
71165;BME280;58859;55.132;-1.586;2023-05-24T07:57:44;102186.94;;;22.95;100.00
71165;BME280;58859;55.132;-1.586;2023-05-24T08:00:11;102189.19;;;22.34;100.00
71165;BME280;58859;55.132;-1.586;2023-05-24T08:02:41;102185.34;;;23.63;100.00
71165;BME280;58859;55.132;-1.586;2023-05-24T08:05:10;102187.34;;;23.54;100.00
71165;BME280;58859;55.132;-1.586;2023-05-24T08:07:36;102187.69;;;22.89;100.00
71165;BME280;58859;55.132;-1.586;2023-05-24T08:10:01;102185.53;;;23.27;100.00
71165;BME280;58859;55.132;-1.586;2023-05-24T08:12:27;102169.47;;;23.69;100.00
71165;BME280;58859;55.132;-1.586;2023-05-24T08:14:54;102182.66;;;23.97;100.00
71165;BME280;58859;55.132;-1.586;2023-05-24T08:17:20;102176.19;;;24.19;100.00
71165;BME280;58859;55.132;-1.586;2023-05-24T08:19:46;102185.00;;;24.20;100.00
71165;BME280;58859;55.132;-1.586;2023-05-24T08:22:11;102193.94;;;24.06;100.00
71165;BME280;58859;55.132;-1.586;2023-05-24T08:24:37;102189.88;;;24.10;100.00
71165;BME280;58859;55.132;-1.586;2023-05-24T08:27:03;102179.78;;;23.92;100.00
71165;BME280;58859;55.132;-1.586;2023-05-24T08:29:28;102194.69;;;23.93;100.00
71165;BME280;58859;55.132;-1.586;2023-05-24T08:31:54;102165.09;;;23.55;100.00
71165;BME280;58859;55.132;-1.586;2023-05-24T08:34:20;102200.59;;;23.48;100.00
71165;BME280;58859;55.132;-1.586;2023-05-24T08:36:45;102210.00;;;23.22;100.00
71165;BME280;58859;55.132;-1.586;2023-05-24T08:39:11;102211.88;;;22.79;100.00
71165;BME280;58859;55.132;-1.586;2023-05-24T08:41:36;102209.00;;;22.60;100.00
71165;BME280;58859;55.132;-1.586;2023-05-24T08:44:06;102206.91;;;21.84;100.00
71165;BME280;58859;55.132;-1.586;2023-05-24T08:46:33;102198.63;;;22.22;100.00
71165;BME280;58859;55.132;-1.586;2023-05-24T08:48:59;102197.50;;;22.10;100.00
71165;BME280;58859;55.132;-1.586;2023-05-24T08:51:28;102194.88;;;22.53;100.00
71165;BME280;58859;55.132;-1.586;2023-05-24T08:53:56;102189.44;;;22.40;100.00
71165;BME280;58859;55.132;-1.586;2023-05-24T08:56:24;102200.19;;;22.53;100.00
71165;BME280;58859;55.132;-1.586;2023-05-24T08:58:49;102211.97;;;23.14;100.00
71165;BME280;58859;55.132;-1.586;2023-05-24T09:01:16;102202.34;;;23.68;100.00
71165;BME280;58859;55.132;-1.586;2023-05-24T09:03:42;102188.13;;;23.20;100.00
71165;BME280;58859;55.132;-1.586;2023-05-24T09:06:09;102190.66;;;22.01;100.00
71165;BME280;58859;55.132;-1.586;2023-05-24T09:08:36;102196.63;;;22.81;100.00
71165;BME280;58859;55.132;-1.586;2023-05-24T09:11:04;102194.59;;;23.39;100.00
71165;BME280;58859;55.132;-1.586;2023-05-24T09:13:30;102186.59;;;22.62;100.00
71165;BME280;58859;55.132;-1.586;2023-05-24T09:15:57;102186.09;;;22.52;100.00
71165;BME280;58859;55.132;-1.586;2023-05-24T09:18:23;102191.13;;;23.11;100.00
71165;BME280;58859;55.132;-1.586;2023-05-24T09:20:48;102191.03;;;22.98;100.00
71165;BME280;58859;55.132;-1.586;2023-05-24T09:23:14;102175.91;;;23.94;100.00
71165;BME280;58859;55.132;-1.586;2023-05-24T09:25:46;102182.31;;;23.04;100.00
71165;BME280;58859;55.132;-1.586;2023-05-24T09:28:13;102179.25;;;24.16;100.00
71165;BME280;58859;55.132;-1.586;2023-05-24T09:30:44;102181.41;;;24.73;100.00
71165;BME280;58859;55.132;-1.586;2023-05-24T09:33:10;102177.44;;;23.69;100.00
71165;BME280;58859;55.132;-1.586;2023-05-24T09:35:41;102176.47;;;24.57;100.00
71165;BME280;58859;55.132;-1.586;2023-05-24T09:38:15;102195.72;;;23.98;100.00
71165;BME280;58859;55.132;-1.586;2023-05-24T09:40:42;102187.41;;;23.61;100.00
71165;BME280;58859;55.132;-1.586;2023-05-24T09:43:08;102192.06;;;24.86;100.00
71165;BME280;58859;55.132;-1.586;2023-05-24T09:45:40;102180.94;;;24.37;100.00
71165;BME280;58859;55.132;-1.586;2023-05-24T09:48:11;102186.00;;;23.71;100.00
71165;BME280;58859;55.132;-1.586;2023-05-24T09:50:37;102182.69;;;24.03;100.00
71165;BME280;58859;55.132;-1.586;2023-05-24T09:53:02;102172.41;;;24.74;100.00
71165;BME280;58859;55.132;-1.586;2023-05-24T09:55:28;102178.81;;;24.06;100.00
71165;BME280;58859;55.132;-1.586;2023-05-24T09:58:07;102185.72;;;25.00;100.00
71165;BME280;58859;55.132;-1.586;2023-05-24T10:00:34;102172.69;;;25.69;100.00
71165;BME280;58859;55.132;-1.586;2023-05-24T10:03:05;102176.66;;;25.98;100.00
71165;BME280;58859;55.132;-1.586;2023-05-24T10:05:34;102182.00;;;25.34;99.85
71165;BME280;58859;55.132;-1.586;2023-05-24T10:08:00;102183.41;;;26.07;100.00
71165;BME280;58859;55.132;-1.586;2023-05-24T10:10:28;102166.53;;;26.13;100.00
71165;BME280;58859;55.132;-1.586;2023-05-24T10:12:58;102182.75;;;26.81;100.00
71165;BME280;58859;55.132;-1.586;2023-05-24T10:15:24;102182.75;;;26.81;100.00
71165;BME280;58859;55.132;-1.586;2023-05-24T10:17:50;102174.00;;;26.67;100.00
71165;BME280;58859;55.132;-1.586;2023-05-24T10:20:16;102185.84;;;26.09;100.00
71165;BME280;58859;55.132;-1.586;2023-05-24T10:22:44;102186.81;;;26.59;100.00
71165;BME280;58859;55.132;-1.586;2023-05-24T10:25:14;102180.94;;;27.43;98.49
71165;BME280;58859;55.132;-1.586;2023-05-24T10:27:43;102187.03;;;26.82;97.36
71165;BME280;58859;55.132;-1.586;2023-05-24T10:32:39;102180.25;;;27.65;97.18
71165;BME280;58859;55.132;-1.586;2023-05-24T10:35:06;102181.59;;;27.13;93.97
71165;BME280;58859;55.132;-1.586;2023-05-24T10:37:32;102166.19;;;26.66;93.37
71165;BME280;58859;55.132;-1.586;2023-05-24T10:39:59;102182.06;;;27.10;100.00
71165;BME280;58859;55.132;-1.586;2023-05-24T10:42:25;102171.47;;;26.48;89.22
71165;BME280;58859;55.132;-1.586;2023-05-24T10:44:51;102161.19;;;27.01;87.58
71165;BME280;58859;55.132;-1.586;2023-05-24T10:47:19;102161.91;;;27.32;95.01
71165;BME280;58859;55.132;-1.586;2023-05-24T10:49:49;102164.50;;;26.47;87.68
71165;BME280;58859;55.132;-1.586;2023-05-24T10:52:16;102165.13;;;27.16;96.11
71165;BME280;58859;55.132;-1.586;2023-05-24T10:57:28;102155.91;;;27.55;100.00
71165;BME280;58859;55.132;-1.586;2023-05-24T10:59:55;102160.31;;;26.82;90.03
71165;BME280;58859;55.132;-1.586;2023-05-24T11:02:21;102161.34;;;27.96;96.38
71165;BME280;58859;55.132;-1.586;2023-05-24T11:04:47;102169.19;;;28.39;95.55
71165;BME280;58859;55.132;-1.586;2023-05-24T11:07:14;102157.16;;;27.71;84.92
71165;BME280;58859;55.132;-1.586;2023-05-24T11:09:41;102145.25;;;27.85;82.00
71165;BME280;58859;55.132;-1.586;2023-05-24T11:12:16;102145.28;;;27.96;91.17
71165;BME280;58859;55.132;-1.586;2023-05-24T11:14:47;102151.66;;;27.66;89.94
71165;BME280;58859;55.132;-1.586;2023-05-24T11:17:13;102133.88;;;28.72;92.69
71165;BME280;58859;55.132;-1.586;2023-05-24T11:19:59;102134.59;;;27.96;80.04
71165;BME280;58859;55.132;-1.586;2023-05-24T11:22:27;102137.56;;;27.40;83.02
71165;BME280;58859;55.132;-1.586;2023-05-24T11:24:53;102140.00;;;28.38;92.37
71165;BME280;58859;55.132;-1.586;2023-05-24T11:27:18;102131.75;;;27.80;87.22
71165;BME280;58859;55.132;-1.586;2023-05-24T11:29:45;102137.13;;;28.21;82.25
71165;BME280;58859;55.132;-1.586;2023-05-24T11:32:15;102137.78;;;28.05;85.65
71165;BME280;58859;55.132;-1.586;2023-05-24T11:34:42;102139.38;;;28.36;90.66
71165;BME280;58859;55.132;-1.586;2023-05-24T11:37:10;102147.97;;;27.49;98.01
71165;BME280;58859;55.132;-1.586;2023-05-24T11:39:36;102154.47;;;28.60;94.64
71165;BME280;58859;55.132;-1.586;2023-05-24T11:42:06;102149.25;;;27.94;81.35
71165;BME280;58859;55.132;-1.586;2023-05-24T11:44:32;102147.28;;;28.31;88.57
71165;BME280;58859;55.132;-1.586;2023-05-24T11:46:59;102158.47;;;27.25;78.71
71165;BME280;58859;55.132;-1.586;2023-05-24T11:49:25;102161.34;;;27.96;86.95
71165;BME280;58859;55.132;-1.586;2023-05-24T11:51:53;102152.84;;;28.18;81.23
71165;BME280;58859;55.132;-1.586;2023-05-24T11:54:20;102159.84;;;26.92;77.63
71165;BME280;58859;55.132;-1.586;2023-05-24T11:56:46;102170.53;;;25.27;87.25
71165;BME280;58859;55.132;-1.586;2023-05-24T11:59:25;102165.41;;;26.34;89.20
71165;BME280;58859;55.132;-1.586;2023-05-24T12:02:02;102164.22;;;25.02;88.94
71165;BME280;58859;55.132;-1.586;2023-05-24T12:04:31;102147.47;;;26.16;86.64
71165;BME280;58859;55.132;-1.586;2023-05-24T12:06:59;102165.19;;;25.27;92.55
71165;BME280;58859;55.132;-1.586;2023-05-24T12:09:25;102172.50;;;26.09;97.15
71165;BME280;58859;55.132;-1.586;2023-05-24T12:11:51;102183.47;;;25.10;89.86
71165;BME280;58859;55.132;-1.586;2023-05-24T12:14:27;102170.25;;;25.61;100.00
71165;BME280;58859;55.132;-1.586;2023-05-24T12:16:55;102177.94;;;24.66;100.00
71165;BME280;58859;55.132;-1.586;2023-05-24T12:19:22;102172.97;;;26.37;88.76
71165;BME280;58859;55.132;-1.586;2023-05-24T12:21:54;102183.19;;;23.79;100.00
71165;BME280;58859;55.132;-1.586;2023-05-24T12:24:22;102170.56;;;24.81;100.00
71165;BME280;58859;55.132;-1.586;2023-05-24T12:26:48;102174.19;;;25.33;100.00
71165;BME280;58859;55.132;-1.586;2023-05-24T12:29:15;102169.94;;;24.79;98.31
71165;BME280;58859;55.132;-1.586;2023-05-24T12:31:47;102164.53;;;24.27;98.13
71165;BME280;58859;55.132;-1.586;2023-05-24T12:34:19;102168.63;;;23.69;100.00
71165;BME280;58859;55.132;-1.586;2023-05-24T12:36:45;102171.13;;;24.31;99.31
71165;BME280;58859;55.132;-1.586;2023-05-24T12:41:53;102167.47;;;23.84;99.82
71165;BME280;58859;55.132;-1.586;2023-05-24T12:44:27;102163.16;;;24.44;92.89
71165;BME280;58859;55.132;-1.586;2023-05-24T12:46:53;102166.44;;;25.25;95.78
71165;BME280;58859;55.132;-1.586;2023-05-24T12:49:20;102164.81;;;23.84;91.29
71165;BME280;58859;55.132;-1.586;2023-05-24T12:51:45;102166.94;;;23.55;91.17